sensor_id;sensor_type;location;lat;lon;timestamp;pressure;altitude;pressure_sealevel;temperature;humidity
11017;BME280;54687;50.800;6.772;2023-08-06T00:00:33;93225.66;;;-144.06;26.63
11017;BME280;54687;50.800;6.772;2023-08-06T00:02:59;93240.47;;;-144.06;26.78
11017;BME280;54687;50.800;6.772;2023-08-06T00:05:26;93206.63;;;-144.06;26.72
11017;BME280;54687;50.800;6.772;2023-08-06T00:07:52;93257.41;;;-144.06;26.63
11017;BME280;54687;50.800;6.772;2023-08-06T00:10:19;93236.22;;;-144.06;26.63
11017;BME280;54687;50.800;6.772;2023-08-06T00:12:46;93291.25;;;-144.06;26.67
11017;BME280;54687;50.800;6.772;2023-08-06T00:15:15;93308.19;;;-144.06;26.95
11017;BME280;54687;50.800;6.772;2023-08-06T00:17:42;93265.84;;;-144.06;26.84
11017;BME280;54687;50.800;6.772;2023-08-06T00:20:10;93267.97;;;-144.06;26.71
11017;BME280;54687;50.800;6.772;2023-08-06T00:22:38;93287.03;;;-144.06;26.80
11017;BME280;54687;50.800;6.772;2023-08-06T00:25:07;93333.56;;;-144.06;26.74
11017;BME280;54687;50.800;6.772;2023-08-06T00:27:36;93354.72;;;-144.06;26.88
11017;BME280;54687;50.800;6.772;2023-08-06T00:30:05;93325.09;;;-144.06;26.93
11017;BME280;54687;50.800;6.772;2023-08-06T00:32:35;93346.28;;;-144.06;26.93
11017;BME280;54687;50.800;6.772;2023-08-06T00:35:09;93361.09;;;-144.06;26.76
11017;BME280;54687;50.800;6.772;2023-08-06T00:37:37;93375.91;;;-144.06;26.81
11017;BME280;54687;50.800;6.772;2023-08-06T00:40:05;93335.69;;;-144.06;26.73
11017;BME280;54687;50.800;6.772;2023-08-06T00:42:33;93358.97;;;-144.06;26.91
11017;BME280;54687;50.800;6.772;2023-08-06T00:45:01;93388.59;;;-144.06;26.95
11017;BME280;54687;50.800;6.772;2023-08-06T00:47:28;93464.78;;;-144.06;27.09
11017;BME280;54687;50.800;6.772;2023-08-06T00:49:56;93397.06;;;-144.06;27.01
11017;BME280;54687;50.800;6.772;2023-08-06T00:52:23;93428.78;;;-144.06;26.97
11017;BME280;54687;50.800;6.772;2023-08-06T00:54:50;93373.78;;;-144.06;27.05
11017;BME280;54687;50.800;6.772;2023-08-06T00:57:17;93363.19;;;-144.06;26.92
11017;BME280;54687;50.800;6.772;2023-08-06T00:59:44;93361.09;;;-144.06;26.92
11017;BME280;54687;50.800;6.772;2023-08-06T01:02:10;93329.34;;;-144.06;26.98
11017;BME280;54687;50.800;6.772;2023-08-06T01:04:37;93325.09;;;-144.06;26.86
11017;BME280;54687;50.800;6.772;2023-08-06T01:07:21;93310.28;;;-144.06;26.90
11017;BME280;54687;50.800;6.772;2023-08-06T01:10:10;93267.97;;;-144.06;26.74
11017;BME280;54687;50.800;6.772;2023-08-06T01:12:46;93299.72;;;-144.06;26.72
11017;BME280;54687;50.800;6.772;2023-08-06T01:15:17;93308.19;;;-144.06;26.79
11017;BME280;54687;50.800;6.772;2023-08-06T01:17:46;93265.84;;;-144.06;26.85
11017;BME280;54687;50.800;6.772;2023-08-06T01:20:12;93234.13;;;-144.06;26.67
11017;BME280;54687;50.800;6.772;2023-08-06T01:22:40;93210.84;;;-144.06;26.64
11017;BME280;54687;50.800;6.772;2023-08-06T01:25:08;93210.84;;;-144.06;26.54
11017;BME280;54687;50.800;6.772;2023-08-06T01:27:40;93196.03;;;-144.06;26.53
11017;BME280;54687;50.800;6.772;2023-08-06T01:30:12;93202.38;;;-144.06;26.37
11017;BME280;54687;50.800;6.772;2023-08-06T01:32:43;93147.38;;;-144.06;26.57
11017;BME280;54687;50.800;6.772;2023-08-06T01:35:12;93187.56;;;-144.06;26.47
11017;BME280;54687;50.800;6.772;2023-08-06T01:37:41;93198.16;;;-144.06;26.67
11017;BME280;54687;50.800;6.772;2023-08-06T01:40:10;93170.66;;;-144.06;26.47
11017;BME280;54687;50.800;6.772;2023-08-06T01:42:37;93198.16;;;-144.06;26.54
11017;BME280;54687;50.800;6.772;2023-08-06T01:45:05;93221.44;;;-144.06;26.66
11017;BME280;54687;50.800;6.772;2023-08-06T01:47:32;93208.72;;;-144.06;26.69
11017;BME280;54687;50.800;6.772;2023-08-06T01:49:58;93236.22;;;-144.06;26.50
11017;BME280;54687;50.800;6.772;2023-08-06T01:52:26;93193.91;;;-144.06;26.86
11017;BME280;54687;50.800;6.772;2023-08-06T01:54:54;93210.84;;;-144.06;26.67
11017;BME280;54687;50.800;6.772;2023-08-06T01:57:20;93202.38;;;-144.06;26.67
11017;BME280;54687;50.800;6.772;2023-08-06T01:59:47;93168.53;;;-144.06;26.59
11017;BME280;54687;50.800;6.772;2023-08-06T02:02:13;93191.81;;;-144.06;26.68
11017;BME280;54687;50.800;6.772;2023-08-06T02:04:40;93164.28;;;-144.06;26.72
11017;BME280;54687;50.800;6.772;2023-08-06T02:07:07;93181.22;;;-144.06;26.55
11017;BME280;54687;50.800;6.772;2023-08-06T02:09:33;93113.50;;;-144.06;26.59
11017;BME280;54687;50.800;6.772;2023-08-06T02:12:02;93160.06;;;-144.06;26.53
11017;BME280;54687;50.800;6.772;2023-08-06T02:14:29;93181.22;;;-144.06;26.62
11017;BME280;54687;50.800;6.772;2023-08-06T02:16:55;93134.66;;;-144.06;26.62
11017;BME280;54687;50.800;6.772;2023-08-06T02:19:22;93134.66;;;-144.06;26.71
11017;BME280;54687;50.800;6.772;2023-08-06T02:21:48;93117.75;;;-144.06;26.74
11017;BME280;54687;50.800;6.772;2023-08-06T02:24:15;93126.22;;;-144.06;26.57
11017;BME280;54687;50.800;6.772;2023-08-06T02:26:41;93136.78;;;-144.06;26.59
11017;BME280;54687;50.800;6.772;2023-08-06T02:29:08;93113.50;;;-144.06;26.59
11017;BME280;54687;50.800;6.772;2023-08-06T02:31:35;93105.06;;;-144.06;26.48
11017;BME280;54687;50.800;6.772;2023-08-06T02:34:02;93121.97;;;-144.06;26.46
11017;BME280;54687;50.800;6.772;2023-08-06T02:36:29;93096.59;;;-144.06;26.70
11017;BME280;54687;50.800;6.772;2023-08-06T02:38:55;93107.16;;;-144.06;26.58
11017;BME280;54687;50.800;6.772;2023-08-06T02:41:22;93096.59;;;-144.06;26.72
11017;BME280;54687;50.800;6.772;2023-08-06T02:43:49;93079.66;;;-144.06;26.59
11017;BME280;54687;50.800;6.772;2023-08-06T02:46:17;93071.19;;;-144.06;26.54
11017;BME280;54687;50.800;6.772;2023-08-06T02:48:43;93109.28;;;-144.06;26.64
11017;BME280;54687;50.800;6.772;2023-08-06T02:51:10;93062.72;;;-144.06;26.57
11017;BME280;54687;50.800;6.772;2023-08-06T02:53:36;93126.22;;;-144.06;26.75
11017;BME280;54687;50.800;6.772;2023-08-06T02:56:03;93096.59;;;-144.06;26.75
11017;BME280;54687;50.800;6.772;2023-08-06T02:58:30;93096.59;;;-144.06;26.48
11017;BME280;54687;50.800;6.772;2023-08-06T03:01:01;93088.13;;;-144.06;26.71
11017;BME280;54687;50.800;6.772;2023-08-06T03:03:29;93075.44;;;-144.06;26.81
11017;BME280;54687;50.800;6.772;2023-08-06T03:05:57;93028.88;;;-144.06;26.67
11017;BME280;54687;50.800;6.772;2023-08-06T03:08:24;93111.41;;;-144.06;26.90
11017;BME280;54687;50.800;6.772;2023-08-06T03:10:51;93096.59;;;-144.06;26.80
11017;BME280;54687;50.800;6.772;2023-08-06T03:13:18;93124.09;;;-144.06;26.81
11017;BME280;54687;50.800;6.772;2023-08-06T03:15:51;93028.88;;;-144.06;26.81
11017;BME280;54687;50.800;6.772;2023-08-06T03:18:19;93009.84;;;-144.06;26.81
11017;BME280;54687;50.800;6.772;2023-08-06T03:20:47;93041.56;;;-144.06;26.54
11017;BME280;54687;50.800;6.772;2023-08-06T03:23:14;93064.84;;;-144.06;26.72
11017;BME280;54687;50.800;6.772;2023-08-06T03:25:41;92965.41;;;-144.06;26.65
11017;BME280;54687;50.800;6.772;2023-08-06T03:28:07;93054.28;;;-144.06;26.46
11017;BME280;54687;50.800;6.772;2023-08-06T03:30:34;93102.94;;;-144.06;26.72
11017;BME280;54687;50.800;6.772;2023-08-06T03:33:01;93141.03;;;-144.06;26.88
11017;BME280;54687;50.800;6.772;2023-08-06T03:35:27;93215.06;;;-144.06;26.93
11017;BME280;54687;50.800;6.772;2023-08-06T03:37:55;93232.00;;;-144.06;27.12
11017;BME280;54687;50.800;6.772;2023-08-06T03:40:22;93202.38;;;-144.06;27.21
11017;BME280;54687;50.800;6.772;2023-08-06T03:42:48;93204.50;;;-144.06;27.16
11017;BME280;54687;50.800;6.772;2023-08-06T03:45:15;93274.31;;;-144.06;27.28
11017;BME280;54687;50.800;6.772;2023-08-06T03:47:42;93177.00;;;-144.06;27.18
11017;BME280;54687;50.800;6.772;2023-08-06T03:50:09;93196.03;;;-144.06;27.12
11017;BME280;54687;50.800;6.772;2023-08-06T03:52:35;93202.38;;;-144.06;27.26
11017;BME280;54687;50.800;6.772;2023-08-06T03:55:04;93215.06;;;-144.06;27.12
11017;BME280;54687;50.800;6.772;2023-08-06T03:57:31;93244.69;;;-144.06;26.99
11017;BME280;54687;50.800;6.772;2023-08-06T03:59:57;93212.97;;;-144.06;27.02
11017;BME280;54687;50.800;6.772;2023-08-06T04:02:24;93232.00;;;-144.06;27.16
11017;BME280;54687;50.800;6.772;2023-08-06T04:04:49;93160.06;;;-144.06;26.96
11017;BME280;54687;50.800;6.772;2023-08-06T04:07:18;93257.41;;;-144.06;27.14
11017;BME280;54687;50.800;6.772;2023-08-06T04:09:52;93291.25;;;-144.06;27.33
11017;BME280;54687;50.800;6.772;2023-08-06T04:12:21;93276.44;;;-144.06;27.28
11017;BME280;54687;50.800;6.772;2023-08-06T04:14:47;93308.19;;;-144.06;27.28
11017;BME280;54687;50.800;6.772;2023-08-06T04:17:14;93236.22;;;-144.06;27.28
11017;BME280;54687;50.800;6.772;2023-08-06T04:19:40;93219.31;;;-144.06;27.18
11017;BME280;54687;50.800;6.772;2023-08-06T04:22:07;93282.78;;;-144.06;27.24
11017;BME280;54687;50.800;6.772;2023-08-06T04:24:33;93280.66;;;-144.06;27.30
11017;BME280;54687;50.800;6.772;2023-08-06T04:27:00;93255.28;;;-144.06;27.31
11017;BME280;54687;50.800;6.772;2023-08-06T04:29:28;93210.84;;;-144.06;27.18
11017;BME280;54687;50.800;6.772;2023-08-06T04:31:55;93210.84;;;-144.06;27.23
11017;BME280;54687;50.800;6.772;2023-08-06T04:34:21;93162.19;;;-144.06;27.10
11017;BME280;54687;50.800;6.772;2023-08-06T04:36:48;93240.47;;;-144.06;27.16
11017;BME280;54687;50.800;6.772;2023-08-06T04:39:15;93219.31;;;-144.06;27.19
11017;BME280;54687;50.800;6.772;2023-08-06T04:41:41;93263.75;;;-144.06;27.34
11017;BME280;54687;50.800;6.772;2023-08-06T04:44:08;93179.09;;;-144.06;27.16
11017;BME280;54687;50.800;6.772;2023-08-06T04:46:36;93117.75;;;-144.06;27.08
11017;BME280;54687;50.800;6.772;2023-08-06T04:49:02;93105.06;;;-144.06;27.24
11017;BME280;54687;50.800;6.772;2023-08-06T04:51:29;92952.72;;;-144.06;27.03
11017;BME280;54687;50.800;6.772;2023-08-06T04:53:57;92984.44;;;-144.06;26.96
11017;BME280;54687;50.800;6.772;2023-08-06T04:56:23;92920.97;;;-144.06;27.10
11017;BME280;54687;50.800;6.772;2023-08-06T04:58:50;92880.78;;;-144.06;26.83
11017;BME280;54687;50.800;6.772;2023-08-06T05:01:17;92810.94;;;-144.06;26.75
11017;BME280;54687;50.800;6.772;2023-08-06T05:03:44;92863.84;;;-144.06;26.92
11017;BME280;54687;50.800;6.772;2023-08-06T05:06:11;92745.38;;;-144.06;27.03
11017;BME280;54687;50.800;6.772;2023-08-06T05:08:38;92779.22;;;-144.06;26.92
11017;BME280;54687;50.800;6.772;2023-08-06T05:11:04;92770.75;;;-144.06;26.88
11017;BME280;54687;50.800;6.772;2023-08-06T05:13:31;92764.41;;;-144.06;26.90
11017;BME280;54687;50.800;6.772;2023-08-06T05:15:58;92796.16;;;-144.06;27.11
11017;BME280;54687;50.800;6.772;2023-08-06T05:18:24;92853.28;;;-144.06;27.21
11017;BME280;54687;50.800;6.772;2023-08-06T05:20:52;92789.78;;;-144.06;27.17
11017;BME280;54687;50.800;6.772;2023-08-06T05:23:19;92830.00;;;-144.06;27.14
11017;BME280;54687;50.800;6.772;2023-08-06T05:25:45;92804.59;;;-144.06;27.08
11017;BME280;54687;50.800;6.772;2023-08-06T05:28:12;92802.50;;;-144.06;27.15
11017;BME280;54687;50.800;6.772;2023-08-06T05:30:39;92813.06;;;-144.06;27.02
11017;BME280;54687;50.800;6.772;2023-08-06T05:33:06;92825.75;;;-144.06;27.13
11017;BME280;54687;50.800;6.772;2023-08-06T05:35:32;92838.47;;;-144.06;26.81
11017;BME280;54687;50.800;6.772;2023-08-06T05:38:00;92802.50;;;-144.06;26.87
11017;BME280;54687;50.800;6.772;2023-08-06T05:40:27;92846.91;;;-144.06;27.13
11017;BME280;54687;50.800;6.772;2023-08-06T05:42:54;92874.44;;;-144.06;27.16
11017;BME280;54687;50.800;6.772;2023-08-06T05:45:20;92813.06;;;-144.06;27.16
11017;BME280;54687;50.800;6.772;2023-08-06T05:47:48;92791.91;;;-144.06;26.97
11017;BME280;54687;50.800;6.772;2023-08-06T05:50:14;92734.78;;;-144.06;27.13
11017;BME280;54687;50.800;6.772;2023-08-06T05:52:41;92711.53;;;-144.06;27.00
11017;BME280;54687;50.800;6.772;2023-08-06T05:55:09;92715.75;;;-144.06;26.65
11017;BME280;54687;50.800;6.772;2023-08-06T05:57:36;92677.66;;;-144.06;26.83
11017;BME280;54687;50.800;6.772;2023-08-06T06:00:02;92722.09;;;-144.06;26.80
11017;BME280;54687;50.800;6.772;2023-08-06T06:02:31;92728.44;;;-144.06;26.89
11017;BME280;54687;50.800;6.772;2023-08-06T06:04:58;92698.81;;;-144.06;26.92
11017;BME280;54687;50.800;6.772;2023-08-06T06:07:24;92681.91;;;-144.06;26.81
11017;BME280;54687;50.800;6.772;2023-08-06T06:09:51;92654.41;;;-144.06;26.91
11017;BME280;54687;50.800;6.772;2023-08-06T06:12:19;92643.81;;;-144.06;26.77
11017;BME280;54687;50.800;6.772;2023-08-06T06:14:47;92686.13;;;-144.06;26.83
11017;BME280;54687;50.800;6.772;2023-08-06T06:17:14;92673.44;;;-144.06;27.07
11017;BME280;54687;50.800;6.772;2023-08-06T06:19:40;92631.13;;;-144.06;26.79
11017;BME280;54687;50.800;6.772;2023-08-06T06:22:07;92664.97;;;-144.06;26.79
11017;BME280;54687;50.800;6.772;2023-08-06T06:24:34;92713.63;;;-144.06;27.02
11017;BME280;54687;50.800;6.772;2023-08-06T06:27:00;92597.28;;;-144.06;26.67
11017;BME280;54687;50.800;6.772;2023-08-06T06:29:28;92605.75;;;-144.06;26.64
11017;BME280;54687;50.800;6.772;2023-08-06T06:31:55;92563.44;;;-144.06;26.94
11017;BME280;54687;50.800;6.772;2023-08-06T06:34:21;92461.88;;;-144.06;26.33
11017;BME280;54687;50.800;6.772;2023-08-06T06:36:48;92464.00;;;-144.06;26.40
11017;BME280;54687;50.800;6.772;2023-08-06T06:39:15;92438.63;;;-144.06;26.62
11017;BME280;54687;50.800;6.772;2023-08-06T06:41:42;92394.19;;;-144.06;26.49
11017;BME280;54687;50.800;6.772;2023-08-06T06:44:09;92419.56;;;-144.06;26.57
11017;BME280;54687;50.800;6.772;2023-08-06T06:46:37;92373.03;;;-144.06;26.39
11017;BME280;54687;50.800;6.772;2023-08-06T06:49:05;92385.72;;;-144.06;26.16
11017;BME280;54687;50.800;6.772;2023-08-06T06:51:32;92356.09;;;-144.06;26.59
11017;BME280;54687;50.800;6.772;2023-08-06T06:53:58;92385.72;;;-144.06;26.48
11017;BME280;54687;50.800;6.772;2023-08-06T06:56:25;92375.16;;;-144.06;26.44
11017;BME280;54687;50.800;6.772;2023-08-06T06:58:52;92370.91;;;-144.06;26.09
11017;BME280;54687;50.800;6.772;2023-08-06T07:01:18;92326.50;;;-144.06;26.59
11017;BME280;54687;50.800;6.772;2023-08-06T07:03:46;92341.31;;;-144.06;26.62
11017;BME280;54687;50.800;6.772;2023-08-06T07:06:13;92343.41;;;-144.06;26.11
11017;BME280;54687;50.800;6.772;2023-08-06T07:08:41;92322.25;;;-144.06;26.27
11017;BME280;54687;50.800;6.772;2023-08-06T07:11:07;92320.16;;;-144.06;26.36
11017;BME280;54687;50.800;6.772;2023-08-06T07:13:34;92252.44;;;-144.06;26.35
11017;BME280;54687;50.800;6.772;2023-08-06T07:16:01;92178.41;;;-144.06;26.17
11017;BME280;54687;50.800;6.772;2023-08-06T07:18:31;92246.09;;;-144.06;26.21
11017;BME280;54687;50.800;6.772;2023-08-06T07:20:59;92214.38;;;-144.06;26.09
11017;BME280;54687;50.800;6.772;2023-08-06T07:23:25;92318.03;;;-144.06;26.15
11017;BME280;54687;50.800;6.772;2023-08-06T07:25:52;92377.25;;;-144.06;26.13
11017;BME280;54687;50.800;6.772;2023-08-06T07:28:19;92356.09;;;-144.06;26.25
11017;BME280;54687;50.800;6.772;2023-08-06T07:30:46;92434.38;;;-144.06;26.25
11017;BME280;54687;50.800;6.772;2023-08-06T07:33:12;92461.88;;;-144.06;26.01
11017;BME280;54687;50.800;6.772;2023-08-06T07:35:39;92381.50;;;-144.06;26.40
11017;BME280;54687;50.800;6.772;2023-08-06T07:38:07;92284.19;;;-144.06;26.10
11017;BME280;54687;50.800;6.772;2023-08-06T07:40:35;92309.56;;;-144.06;26.08
11017;BME280;54687;50.800;6.772;2023-08-06T07:43:01;92296.88;;;-144.06;26.17
11017;BME280;54687;50.800;6.772;2023-08-06T07:45:32;92201.69;;;-144.06;25.99
11017;BME280;54687;50.800;6.772;2023-08-06T07:47:59;92258.81;;;-144.06;25.98
11017;BME280;54687;50.800;6.772;2023-08-06T07:50:25;92277.84;;;-144.06;25.91
11017;BME280;54687;50.800;6.772;2023-08-06T07:52:52;92258.81;;;-144.06;25.99
11017;BME280;54687;50.800;6.772;2023-08-06T07:55:20;92220.72;;;-144.06;25.86
11017;BME280;54687;50.800;6.772;2023-08-06T07:57:47;92159.38;;;-144.06;25.68
11017;BME280;54687;50.800;6.772;2023-08-06T08:00:14;92157.25;;;-144.06;25.69
11017;BME280;54687;50.800;6.772;2023-08-06T08:02:40;92159.38;;;-144.06;25.73
11017;BME280;54687;50.800;6.772;2023-08-06T08:05:07;92064.19;;;-144.06;25.92
11017;BME280;54687;50.800;6.772;2023-08-06T08:07:34;92026.13;;;-144.06;25.66
11017;BME280;54687;50.800;6.772;2023-08-06T08:10:01;92131.88;;;-144.06;25.72
11017;BME280;54687;50.800;6.772;2023-08-06T08:12:30;91960.53;;;-144.06;26.01
11017;BME280;54687;50.800;6.772;2023-08-06T08:14:56;91958.44;;;-144.06;25.71
11017;BME280;54687;50.800;6.772;2023-08-06T08:17:23;92114.97;;;-144.06;26.06
11017;BME280;54687;50.800;6.772;2023-08-06T08:19:50;92051.50;;;-144.06;25.89
11017;BME280;54687;50.800;6.772;2023-08-06T08:22:16;91992.28;;;-144.06;25.91
11017;BME280;54687;50.800;6.772;2023-08-06T08:24:43;91933.06;;;-144.06;25.91
11017;BME280;54687;50.800;6.772;2023-08-06T08:27:09;91852.69;;;-144.06;25.95
11017;BME280;54687;50.800;6.772;2023-08-06T08:29:37;91827.28;;;-144.06;25.90
11017;BME280;54687;50.800;6.772;2023-08-06T08:32:04;91844.22;;;-144.06;25.88
11017;BME280;54687;50.800;6.772;2023-08-06T08:34:31;91721.53;;;-144.06;25.69
11017;BME280;54687;50.800;6.772;2023-08-06T08:36:58;91634.81;;;-144.06;25.51
11017;BME280;54687;50.800;6.772;2023-08-06T08:39:24;91579.84;;;-144.06;25.44
11017;BME280;54687;50.800;6.772;2023-08-06T08:41:52;91552.34;;;-144.06;25.47
11017;BME280;54687;50.800;6.772;2023-08-06T08:44:18;91526.97;;;-144.06;25.50
11017;BME280;54687;50.800;6.772;2023-08-06T08:46:47;91641.16;;;-144.06;25.48
11017;BME280;54687;50.800;6.772;2023-08-06T08:49:14;91742.69;;;-144.06;25.63
11017;BME280;54687;50.800;6.772;2023-08-06T08:51:43;91782.88;;;-144.06;25.74
11017;BME280;54687;50.800;6.772;2023-08-06T08:54:13;91899.22;;;-144.06;25.91
11017;BME280;54687;50.800;6.772;2023-08-06T08:56:39;92017.66;;;-144.06;25.86
11017;BME280;54687;50.800;6.772;2023-08-06T08:59:06;92013.44;;;-144.06;25.84
11017;BME280;54687;50.800;6.772;2023-08-06T09:01:33;92157.25;;;-144.06;26.35
11017;BME280;54687;50.800;6.772;2023-08-06T09:04:02;92174.19;;;-144.06;26.08
11017;BME280;54687;50.800;6.772;2023-08-06T09:06:30;92233.41;;;-144.06;26.25
11017;BME280;54687;50.800;6.772;2023-08-06T09:09:03;92271.50;;;-144.06;26.45
11017;BME280;54687;50.800;6.772;2023-08-06T09:11:36;92313.81;;;-144.06;26.62
11017;BME280;54687;50.800;6.772;2023-08-06T09:14:06;92438.63;;;-144.06;26.74
11017;BME280;54687;50.800;6.772;2023-08-06T09:16:34;92516.88;;;-144.06;27.03
11017;BME280;54687;50.800;6.772;2023-08-06T09:19:08;92715.75;;;-144.06;26.91
11017;BME280;54687;50.800;6.772;2023-08-06T09:21:36;92961.16;;;-144.06;27.56
11017;BME280;54687;50.800;6.772;2023-08-06T09:24:07;93035.22;;;-144.06;27.24
11017;BME280;54687;50.800;6.772;2023-08-06T09:26:34;93138.91;;;-144.06;27.50
11017;BME280;54687;50.800;6.772;2023-08-06T09:29:00;93196.03;;;-144.06;27.84
11017;BME280;54687;50.800;6.772;2023-08-06T09:31:32;93210.84;;;-144.06;27.81
11017;BME280;54687;50.800;6.772;2023-08-06T09:33:59;93234.13;;;-144.06;27.88
11017;BME280;54687;50.800;6.772;2023-08-06T09:36:28;93177.00;;;-144.06;27.87
11017;BME280;54687;50.800;6.772;2023-08-06T09:38:54;93181.22;;;-144.06;27.87
11017;BME280;54687;50.800;6.772;2023-08-06T09:41:26;93363.19;;;-144.06;28.01
11017;BME280;54687;50.800;6.772;2023-08-06T09:43:53;93460.53;;;-144.06;28.33
11017;BME280;54687;50.800;6.772;2023-08-06T09:46:20;93496.50;;;-144.06;28.54
11017;BME280;54687;50.800;6.772;2023-08-06T09:48:47;93579.03;;;-144.06;28.73
11017;BME280;54687;50.800;6.772;2023-08-06T09:51:15;93718.72;;;-144.06;29.01
11017;BME280;54687;50.800;6.772;2023-08-06T09:53:45;93928.22;;;-144.06;29.43
11017;BME280;54687;50.800;6.772;2023-08-06T09:56:13;93972.66;;;-144.06;29.45
11017;BME280;54687;50.800;6.772;2023-08-06T09:58:41;93968.44;;;-144.06;29.51
11017;BME280;54687;50.800;6.772;2023-08-06T10:01:08;94053.09;;;-144.06;29.70
11017;BME280;54687;50.800;6.772;2023-08-06T10:03:36;94125.06;;;-144.06;29.95
11017;BME280;54687;50.800;6.772;2023-08-06T10:06:03;94186.44;;;-144.06;29.78
11017;BME280;54687;50.800;6.772;2023-08-06T10:08:32;94230.88;;;-144.06;30.11
11017;BME280;54687;50.800;6.772;2023-08-06T10:11:02;94381.16;;;-144.06;30.13
11017;BME280;54687;50.800;6.772;2023-08-06T10:13:31;94364.22;;;-144.06;30.12
11017;BME280;54687;50.800;6.772;2023-08-06T10:15:59;94383.28;;;-144.06;30.62
11017;BME280;54687;50.800;6.772;2023-08-06T10:18:26;94360.00;;;-144.06;30.23
11017;BME280;54687;50.800;6.772;2023-08-06T10:20:53;94434.06;;;-144.06;30.15
11017;BME280;54687;50.800;6.772;2023-08-06T10:23:33;94429.84;;;-144.06;30.25
11017;BME280;54687;50.800;6.772;2023-08-06T10:26:01;94438.31;;;-144.06;30.33
11017;BME280;54687;50.800;6.772;2023-08-06T10:28:34;94410.78;;;-144.06;30.26
11017;BME280;54687;50.800;6.772;2023-08-06T10:31:02;94389.63;;;-144.06;30.44
11017;BME280;54687;50.800;6.772;2023-08-06T10:33:40;94383.28;;;-144.06;30.06
11017;BME280;54687;50.800;6.772;2023-08-06T10:36:08;94408.69;;;-144.06;30.05
11017;BME280;54687;50.800;6.772;2023-08-06T10:38:36;94372.69;;;-144.06;29.92
11017;BME280;54687;50.800;6.772;2023-08-06T10:41:15;94404.44;;;-144.06;30.21
11017;BME280;54687;50.800;6.772;2023-08-06T10:43:42;94307.06;;;-144.06;30.37
11017;BME280;54687;50.800;6.772;2023-08-06T10:46:11;94328.25;;;-144.06;30.05
11017;BME280;54687;50.800;6.772;2023-08-06T10:48:39;94385.41;;;-144.06;29.99
11017;BME280;54687;50.800;6.772;2023-08-06T10:51:08;94408.69;;;-144.06;30.03
11017;BME280;54687;50.800;6.772;2023-08-06T10:53:35;94459.47;;;-144.06;30.52
11017;BME280;54687;50.800;6.772;2023-08-06T10:56:02;94395.97;;;-144.06;30.23
11017;BME280;54687;50.800;6.772;2023-08-06T10:58:32;94472.19;;;-144.06;30.52
11017;BME280;54687;50.800;6.772;2023-08-06T11:00:59;94345.19;;;-144.06;30.20
11017;BME280;54687;50.800;6.772;2023-08-06T11:03:26;94336.72;;;-144.06;30.52
11017;BME280;54687;50.800;6.772;2023-08-06T11:05:53;94307.06;;;-144.06;29.98
11017;BME280;54687;50.800;6.772;2023-08-06T11:08:23;94264.75;;;-144.06;29.90
11017;BME280;54687;50.800;6.772;2023-08-06T11:10:50;94317.66;;;-144.06;30.15
11017;BME280;54687;50.800;6.772;2023-08-06T11:13:16;94283.78;;;-144.06;29.80
11017;BME280;54687;50.800;6.772;2023-08-06T11:15:45;94353.66;;;-144.06;30.31
11017;BME280;54687;50.800;6.772;2023-08-06T11:18:12;94332.47;;;-144.06;30.31
11017;BME280;54687;50.800;6.772;2023-08-06T11:20:39;94258.41;;;-144.06;30.07
11017;BME280;54687;50.800;6.772;2023-08-06T11:23:06;94226.66;;;-144.06;30.03
11017;BME280;54687;50.800;6.772;2023-08-06T11:25:36;94173.72;;;-144.06;29.84
11017;BME280;54687;50.800;6.772;2023-08-06T11:28:03;94141.97;;;-144.06;30.04
11017;BME280;54687;50.800;6.772;2023-08-06T11:30:29;94222.41;;;-144.06;29.62
11017;BME280;54687;50.800;6.772;2023-08-06T11:32:57;94247.81;;;-144.06;29.92
11017;BME280;54687;50.800;6.772;2023-08-06T11:35:24;94156.81;;;-144.06;29.83
11017;BME280;54687;50.800;6.772;2023-08-06T11:37:51;94201.25;;;-144.06;30.07
11017;BME280;54687;50.800;6.772;2023-08-06T11:40:18;94235.13;;;-144.06;30.00
11017;BME280;54687;50.800;6.772;2023-08-06T11:42:46;94192.78;;;-144.06;30.04
11017;BME280;54687;50.800;6.772;2023-08-06T11:45:13;94148.34;;;-144.06;30.17
11017;BME280;54687;50.800;6.772;2023-08-06T11:47:39;94099.66;;;-144.06;29.63
11017;BME280;54687;50.800;6.772;2023-08-06T11:50:08;94076.38;;;-144.06;29.75
11017;BME280;54687;50.800;6.772;2023-08-06T11:52:39;93989.59;;;-144.06;29.63
11017;BME280;54687;50.800;6.772;2023-08-06T11:55:06;93932.47;;;-144.06;29.61
11017;BME280;54687;50.800;6.772;2023-08-06T11:57:36;93989.59;;;-144.06;29.68
11017;BME280;54687;50.800;6.772;2023-08-06T12:00:03;94006.53;;;-144.06;29.44
11017;BME280;54687;50.800;6.772;2023-08-06T12:02:31;93943.03;;;-144.06;29.34
11017;BME280;54687;50.800;6.772;2023-08-06T12:05:04;93953.63;;;-144.06;29.34
11017;BME280;54687;50.800;6.772;2023-08-06T12:07:33;93930.34;;;-144.06;29.08
11017;BME280;54687;50.800;6.772;2023-08-06T12:10:03;93883.78;;;-144.06;29.03
11017;BME280;54687;50.800;6.772;2023-08-06T12:12:30;93883.78;;;-144.06;29.41
11017;BME280;54687;50.800;6.772;2023-08-06T12:14:56;93803.38;;;-144.06;29.12
11017;BME280;54687;50.800;6.772;2023-08-06T12:17:24;93811.81;;;-144.06;29.07
11017;BME280;54687;50.800;6.772;2023-08-06T12:19:50;93684.84;;;-144.06;28.72
11017;BME280;54687;50.800;6.772;2023-08-06T12:22:17;93646.75;;;-144.06;28.87
11017;BME280;54687;50.800;6.772;2023-08-06T12:24:46;93761.03;;;-144.06;28.77
11017;BME280;54687;50.800;6.772;2023-08-06T12:27:13;93638.28;;;-144.06;29.00
11017;BME280;54687;50.800;6.772;2023-08-06T12:29:40;93714.47;;;-144.06;28.73
11017;BME280;54687;50.800;6.772;2023-08-06T12:32:08;93693.31;;;-144.06;28.38
11017;BME280;54687;50.800;6.772;2023-08-06T12:34:35;93615.00;;;-144.06;28.53
11017;BME280;54687;50.800;6.772;2023-08-06T12:37:02;93744.09;;;-144.06;28.82
11017;BME280;54687;50.800;6.772;2023-08-06T12:39:28;93629.81;;;-144.06;28.87
11017;BME280;54687;50.800;6.772;2023-08-06T12:41:58;93663.69;;;-144.06;28.70